Portada
METAR-TAF:

METAR-TAF

Aeropuertos :

Condado de Franklin, Vermont, Estados Unidos

latitud: 44-56-25N, longitud: 073-05-51W, altitud: 69 m

Observación

El informe se hizo hace 19 minutos, a las 00:55 UTC
Viento calma
Temperatura 22°C
Humedad 50%
Presión 1017 hPa
Visibilidad: 16.1 km
Cielo despejado

METAR: KFSO 220055Z AUTO 00000KT 10SM CLR 22/11 A3004 RMK AO2 T02200112

Hora: 21:14 (01:14 UTC)


TAF: falta

Observaciones y pronósticos meteorológicos de más de 4000 aeropuertos (mensajes METAR y TAF).

Los puntos amarillos y rojos representan las estaciones disponibles.

Ponga el ratón en el punto deseado para ver el nombre de la estación.

Haga clic para ver las observaciones y los pronósticos meteorológicos.

Para cambiar el mapa : haga clic en los botones verdes con una cruz de color negro para hacer un zoom, en el botón verde con un guión para alejar o en las flechas verdes para mapas adyacentes.


METAR-TAF: